sensor_id;sensor_type;location;lat;lon;timestamp;P1;durP1;ratioP1;P2;durP2;ratioP2
7997;SDS011;4044;49.814;7.828;2023-12-20T00:02:08;6.40;;;4.23;;
7997;SDS011;4044;49.814;7.828;2023-12-20T00:04:34;4.57;;;4.17;;
7997;SDS011;4044;49.814;7.828;2023-12-20T00:06:59;5.17;;;4.70;;
7997;SDS011;4044;49.814;7.828;2023-12-20T00:09:25;4.40;;;4.00;;
7997;SDS011;4044;49.814;7.828;2023-12-20T00:11:50;4.43;;;4.07;;
7997;SDS011;4044;49.814;7.828;2023-12-20T00:14:16;4.37;;;3.97;;
7997;SDS011;4044;49.814;7.828;2023-12-20T00:16:41;4.53;;;4.10;;
7997;SDS011;4044;49.814;7.828;2023-12-20T00:19:07;5.33;;;4.50;;
7997;SDS011;4044;49.814;7.828;2023-12-20T00:21:32;4.57;;;4.17;;
7997;SDS011;4044;49.814;7.828;2023-12-20T00:23:58;4.67;;;4.17;;
7997;SDS011;4044;49.814;7.828;2023-12-20T00:26:23;3.70;;;3.30;;
7997;SDS011;4044;49.814;7.828;2023-12-20T00:28:49;4.47;;;4.07;;
7997;SDS011;4044;49.814;7.828;2023-12-20T00:31:14;4.30;;;3.87;;
7997;SDS011;4044;49.814;7.828;2023-12-20T00:33:40;4.57;;;4.17;;
7997;SDS011;4044;49.814;7.828;2023-12-20T00:36:08;4.77;;;4.37;;
7997;SDS011;4044;49.814;7.828;2023-12-20T00:38:34;5.93;;;4.33;;
7997;SDS011;4044;49.814;7.828;2023-12-20T00:41:00;4.57;;;3.97;;
7997;SDS011;4044;49.814;7.828;2023-12-20T00:43:25;5.17;;;4.50;;
7997;SDS011;4044;49.814;7.828;2023-12-20T00:45:51;5.17;;;4.60;;
7997;SDS011;4044;49.814;7.828;2023-12-20T00:48:17;5.90;;;4.90;;
7997;SDS011;4044;49.814;7.828;2023-12-20T00:50:42;4.80;;;4.27;;
7997;SDS011;4044;49.814;7.828;2023-12-20T00:53:08;4.03;;;3.63;;
7997;SDS011;4044;49.814;7.828;2023-12-20T00:55:33;4.00;;;3.60;;
7997;SDS011;4044;49.814;7.828;2023-12-20T00:57:59;3.43;;;3.13;;
7997;SDS011;4044;49.814;7.828;2023-12-20T01:00:25;3.23;;;2.93;;
7997;SDS011;4044;49.814;7.828;2023-12-20T01:02:50;2.70;;;2.47;;
7997;SDS011;4044;49.814;7.828;2023-12-20T01:05:16;2.70;;;2.50;;
7997;SDS011;4044;49.814;7.828;2023-12-20T01:07:43;2.80;;;2.60;;
7997;SDS011;4044;49.814;7.828;2023-12-20T01:10:08;2.93;;;2.47;;
7997;SDS011;4044;49.814;7.828;2023-12-20T01:12:35;2.63;;;2.43;;
7997;SDS011;4044;49.814;7.828;2023-12-20T01:15:01;2.57;;;2.37;;
7997;SDS011;4044;49.814;7.828;2023-12-20T01:17:27;2.07;;;1.97;;
7997;SDS011;4044;49.814;7.828;2023-12-20T01:19:52;2.30;;;2.10;;
7997;SDS011;4044;49.814;7.828;2023-12-20T01:22:18;2.70;;;2.50;;
7997;SDS011;4044;49.814;7.828;2023-12-20T01:24:44;2.50;;;2.40;;
7997;SDS011;4044;49.814;7.828;2023-12-20T01:27:09;2.20;;;2.10;;
7997;SDS011;4044;49.814;7.828;2023-12-20T01:29:35;1.90;;;1.80;;
7997;SDS011;4044;49.814;7.828;2023-12-20T01:32:00;1.90;;;1.80;;
7997;SDS011;4044;49.814;7.828;2023-12-20T01:34:26;2.00;;;1.90;;
7997;SDS011;4044;49.814;7.828;2023-12-20T01:36:51;1.77;;;1.67;;
7997;SDS011;4044;49.814;7.828;2023-12-20T01:39:17;2.17;;;2.07;;
7997;SDS011;4044;49.814;7.828;2023-12-20T01:41:43;2.03;;;1.93;;
7997;SDS011;4044;49.814;7.828;2023-12-20T01:44:08;1.97;;;1.87;;
7997;SDS011;4044;49.814;7.828;2023-12-20T01:46:34;2.63;;;1.90;;
7997;SDS011;4044;49.814;7.828;2023-12-20T01:48:59;1.90;;;1.80;;
7997;SDS011;4044;49.814;7.828;2023-12-20T01:51:25;2.30;;;2.10;;
7997;SDS011;4044;49.814;7.828;2023-12-20T01:53:52;2.37;;;2.17;;
7997;SDS011;4044;49.814;7.828;2023-12-20T01:56:19;2.30;;;2.10;;
7997;SDS011;4044;49.814;7.828;2023-12-20T01:58:45;2.23;;;2.13;;
7997;SDS011;4044;49.814;7.828;2023-12-20T02:01:12;2.30;;;2.10;;
7997;SDS011;4044;49.814;7.828;2023-12-20T02:03:39;2.30;;;2.20;;
7997;SDS011;4044;49.814;7.828;2023-12-20T02:06:08;3.00;;;2.40;;
7997;SDS011;4044;49.814;7.828;2023-12-20T02:08:34;2.90;;;2.70;;
7997;SDS011;4044;49.814;7.828;2023-12-20T02:11:00;2.67;;;2.47;;
7997;SDS011;4044;49.814;7.828;2023-12-20T02:13:26;2.43;;;2.23;;
7997;SDS011;4044;49.814;7.828;2023-12-20T02:15:52;2.30;;;2.10;;
7997;SDS011;4044;49.814;7.828;2023-12-20T02:18:19;3.30;;;2.63;;
7997;SDS011;4044;49.814;7.828;2023-12-20T02:20:44;2.70;;;2.50;;
7997;SDS011;4044;49.814;7.828;2023-12-20T02:23:10;3.83;;;2.67;;
7997;SDS011;4044;49.814;7.828;2023-12-20T02:25:35;2.90;;;2.57;;
7997;SDS011;4044;49.814;7.828;2023-12-20T02:28:01;2.77;;;2.57;;
7997;SDS011;4044;49.814;7.828;2023-12-20T02:30:27;2.83;;;2.63;;
7997;SDS011;4044;49.814;7.828;2023-12-20T02:32:53;2.77;;;2.57;;
7997;SDS011;4044;49.814;7.828;2023-12-20T02:35:18;2.70;;;2.50;;
7997;SDS011;4044;49.814;7.828;2023-12-20T02:37:44;7.90;;;3.23;;
7997;SDS011;4044;49.814;7.828;2023-12-20T02:40:10;3.10;;;2.87;;
7997;SDS011;4044;49.814;7.828;2023-12-20T02:42:35;2.70;;;2.50;;
7997;SDS011;4044;49.814;7.828;2023-12-20T02:45:01;2.37;;;2.27;;
7997;SDS011;4044;49.814;7.828;2023-12-20T02:47:26;2.50;;;2.30;;
7997;SDS011;4044;49.814;7.828;2023-12-20T02:49:52;2.00;;;1.90;;
7997;SDS011;4044;49.814;7.828;2023-12-20T02:52:18;2.50;;;2.30;;
7997;SDS011;4044;49.814;7.828;2023-12-20T02:54:44;2.40;;;2.30;;
7997;SDS011;4044;49.814;7.828;2023-12-20T02:57:09;2.60;;;2.40;;
7997;SDS011;4044;49.814;7.828;2023-12-20T02:59:35;2.50;;;2.30;;
7997;SDS011;4044;49.814;7.828;2023-12-20T03:02:00;2.60;;;2.40;;
7997;SDS011;4044;49.814;7.828;2023-12-20T03:04:26;2.60;;;2.40;;
7997;SDS011;4044;49.814;7.828;2023-12-20T03:06:51;2.37;;;2.27;;
7997;SDS011;4044;49.814;7.828;2023-12-20T03:09:17;2.80;;;2.60;;
7997;SDS011;4044;49.814;7.828;2023-12-20T03:11:42;2.37;;;2.20;;
7997;SDS011;4044;49.814;7.828;2023-12-20T03:14:08;2.63;;;2.43;;
7997;SDS011;4044;49.814;7.828;2023-12-20T03:16:33;2.77;;;2.57;;
7997;SDS011;4044;49.814;7.828;2023-12-20T03:18:59;2.40;;;2.30;;
7997;SDS011;4044;49.814;7.828;2023-12-20T03:21:24;2.50;;;2.30;;
7997;SDS011;4044;49.814;7.828;2023-12-20T03:23:50;2.57;;;2.37;;
7997;SDS011;4044;49.814;7.828;2023-12-20T03:26:15;2.30;;;2.20;;
7997;SDS011;4044;49.814;7.828;2023-12-20T03:28:41;2.43;;;2.30;;
7997;SDS011;4044;49.814;7.828;2023-12-20T03:31:06;2.47;;;2.27;;
7997;SDS011;4044;49.814;7.828;2023-12-20T03:33:32;2.63;;;2.30;;
7997;SDS011;4044;49.814;7.828;2023-12-20T03:35:57;2.23;;;2.13;;
7997;SDS011;4044;49.814;7.828;2023-12-20T03:38:23;2.07;;;1.97;;
7997;SDS011;4044;49.814;7.828;2023-12-20T03:40:49;2.20;;;2.10;;
7997;SDS011;4044;49.814;7.828;2023-12-20T03:43:15;2.03;;;1.93;;
7997;SDS011;4044;49.814;7.828;2023-12-20T03:45:41;3.83;;;2.40;;
7997;SDS011;4044;49.814;7.828;2023-12-20T03:48:07;2.20;;;2.10;;
7997;SDS011;4044;49.814;7.828;2023-12-20T03:50:33;2.23;;;2.10;;
7997;SDS011;4044;49.814;7.828;2023-12-20T03:52:59;2.00;;;1.90;;
7997;SDS011;4044;49.814;7.828;2023-12-20T03:55:25;2.20;;;2.10;;
7997;SDS011;4044;49.814;7.828;2023-12-20T03:57:50;2.60;;;2.40;;
7997;SDS011;4044;49.814;7.828;2023-12-20T04:00:16;2.30;;;2.20;;
7997;SDS011;4044;49.814;7.828;2023-12-20T04:02:42;1.87;;;1.77;;
7997;SDS011;4044;49.814;7.828;2023-12-20T04:05:07;2.50;;;2.30;;
7997;SDS011;4044;49.814;7.828;2023-12-20T04:07:34;2.33;;;2.23;;
7997;SDS011;4044;49.814;7.828;2023-12-20T04:10:01;2.10;;;2.00;;
7997;SDS011;4044;49.814;7.828;2023-12-20T04:12:27;2.30;;;2.20;;
7997;SDS011;4044;49.814;7.828;2023-12-20T04:14:53;2.53;;;2.33;;
7997;SDS011;4044;49.814;7.828;2023-12-20T04:17:19;2.43;;;2.30;;
7997;SDS011;4044;49.814;7.828;2023-12-20T04:19:45;2.17;;;2.07;;
7997;SDS011;4044;49.814;7.828;2023-12-20T04:22:10;2.73;;;2.37;;
7997;SDS011;4044;49.814;7.828;2023-12-20T04:24:36;2.43;;;2.23;;
7997;SDS011;4044;49.814;7.828;2023-12-20T04:27:02;2.57;;;2.37;;
7997;SDS011;4044;49.814;7.828;2023-12-20T04:29:27;2.63;;;2.43;;
7997;SDS011;4044;49.814;7.828;2023-12-20T04:31:53;2.90;;;2.70;;
7997;SDS011;4044;49.814;7.828;2023-12-20T04:34:18;2.87;;;2.67;;
7997;SDS011;4044;49.814;7.828;2023-12-20T04:36:44;3.50;;;3.20;;
7997;SDS011;4044;49.814;7.828;2023-12-20T04:39:11;3.03;;;2.73;;
7997;SDS011;4044;49.814;7.828;2023-12-20T04:41:37;2.30;;;2.20;;
7997;SDS011;4044;49.814;7.828;2023-12-20T04:44:03;2.60;;;2.40;;
7997;SDS011;4044;49.814;7.828;2023-12-20T04:46:29;2.73;;;2.53;;
7997;SDS011;4044;49.814;7.828;2023-12-20T04:48:54;2.53;;;2.20;;
7997;SDS011;4044;49.814;7.828;2023-12-20T04:51:20;2.40;;;2.30;;
7997;SDS011;4044;49.814;7.828;2023-12-20T04:53:45;3.23;;;2.37;;
7997;SDS011;4044;49.814;7.828;2023-12-20T04:56:11;2.80;;;2.50;;
7997;SDS011;4044;49.814;7.828;2023-12-20T04:58:37;3.43;;;2.00;;
7997;SDS011;4044;49.814;7.828;2023-12-20T05:01:03;3.20;;;2.50;;
7997;SDS011;4044;49.814;7.828;2023-12-20T05:03:30;2.47;;;2.27;;
7997;SDS011;4044;49.814;7.828;2023-12-20T05:05:55;3.37;;;2.10;;
7997;SDS011;4044;49.814;7.828;2023-12-20T05:08:21;2.27;;;2.03;;
7997;SDS011;4044;49.814;7.828;2023-12-20T05:10:46;3.33;;;1.93;;
7997;SDS011;4044;49.814;7.828;2023-12-20T05:13:12;5.60;;;2.30;;
7997;SDS011;4044;49.814;7.828;2023-12-20T05:15:37;2.87;;;1.93;;
7997;SDS011;4044;49.814;7.828;2023-12-20T05:18:03;3.77;;;2.27;;
7997;SDS011;4044;49.814;7.828;2023-12-20T05:20:29;2.67;;;2.23;;
7997;SDS011;4044;49.814;7.828;2023-12-20T05:22:54;2.93;;;2.20;;
7997;SDS011;4044;49.814;7.828;2023-12-20T05:25:20;2.57;;;2.00;;
7997;SDS011;4044;49.814;7.828;2023-12-20T05:27:45;4.23;;;2.10;;
7997;SDS011;4044;49.814;7.828;2023-12-20T05:30:11;2.47;;;2.27;;
7997;SDS011;4044;49.814;7.828;2023-12-20T05:32:36;3.27;;;2.40;;
7997;SDS011;4044;49.814;7.828;2023-12-20T05:35:02;3.90;;;2.50;;
7997;SDS011;4044;49.814;7.828;2023-12-20T05:37:28;2.57;;;2.33;;
7997;SDS011;4044;49.814;7.828;2023-12-20T05:39:53;3.67;;;2.60;;
7997;SDS011;4044;49.814;7.828;2023-12-20T05:42:19;5.90;;;3.00;;
7997;SDS011;4044;49.814;7.828;2023-12-20T05:44:44;5.27;;;2.30;;
7997;SDS011;4044;49.814;7.828;2023-12-20T05:47:10;2.83;;;1.83;;
7997;SDS011;4044;49.814;7.828;2023-12-20T05:49:36;4.57;;;2.17;;
7997;SDS011;4044;49.814;7.828;2023-12-20T05:52:01;4.10;;;2.03;;
7997;SDS011;4044;49.814;7.828;2023-12-20T05:54:27;4.83;;;2.30;;
7997;SDS011;4044;49.814;7.828;2023-12-20T05:56:52;6.17;;;2.20;;
7997;SDS011;4044;49.814;7.828;2023-12-20T05:59:18;3.53;;;1.90;;
7997;SDS011;4044;49.814;7.828;2023-12-20T06:01:43;4.60;;;2.00;;
7997;SDS011;4044;49.814;7.828;2023-12-20T06:04:09;3.17;;;2.00;;
7997;SDS011;4044;49.814;7.828;2023-12-20T06:06:34;5.53;;;2.07;;
7997;SDS011;4044;49.814;7.828;2023-12-20T06:09:05;3.87;;;1.80;;
7997;SDS011;4044;49.814;7.828;2023-12-20T06:11:30;3.80;;;2.00;;
7997;SDS011;4044;49.814;7.828;2023-12-20T06:13:56;4.17;;;1.80;;
7997;SDS011;4044;49.814;7.828;2023-12-20T06:16:21;5.47;;;1.97;;
7997;SDS011;4044;49.814;7.828;2023-12-20T06:18:47;4.97;;;2.10;;
7997;SDS011;4044;49.814;7.828;2023-12-20T06:21:12;3.93;;;1.90;;
7997;SDS011;4044;49.814;7.828;2023-12-20T06:23:38;4.23;;;1.90;;
7997;SDS011;4044;49.814;7.828;2023-12-20T06:26:04;4.23;;;1.67;;
7997;SDS011;4044;49.814;7.828;2023-12-20T06:28:29;4.07;;;1.60;;
7997;SDS011;4044;49.814;7.828;2023-12-20T06:30:55;3.33;;;1.80;;
7997;SDS011;4044;49.814;7.828;2023-12-20T06:33:22;2.07;;;1.67;;
7997;SDS011;4044;49.814;7.828;2023-12-20T06:35:48;5.10;;;2.17;;
7997;SDS011;4044;49.814;7.828;2023-12-20T06:38:13;4.63;;;2.33;;
7997;SDS011;4044;49.814;7.828;2023-12-20T06:40:39;4.90;;;2.00;;
7997;SDS011;4044;49.814;7.828;2023-12-20T06:43:05;5.77;;;2.40;;
7997;SDS011;4044;49.814;7.828;2023-12-20T06:45:31;6.30;;;2.40;;
7997;SDS011;4044;49.814;7.828;2023-12-20T06:47:57;5.97;;;1.97;;
7997;SDS011;4044;49.814;7.828;2023-12-20T06:50:23;4.17;;;2.10;;
7997;SDS011;4044;49.814;7.828;2023-12-20T06:52:49;4.70;;;2.57;;
7997;SDS011;4044;49.814;7.828;2023-12-20T06:55:14;6.30;;;2.03;;
7997;SDS011;4044;49.814;7.828;2023-12-20T06:57:40;4.03;;;2.07;;
7997;SDS011;4044;49.814;7.828;2023-12-20T07:00:05;3.97;;;1.93;;
7997;SDS011;4044;49.814;7.828;2023-12-20T07:02:31;4.20;;;1.80;;
7997;SDS011;4044;49.814;7.828;2023-12-20T07:04:57;3.77;;;2.20;;
7997;SDS011;4044;49.814;7.828;2023-12-20T07:07:22;5.10;;;2.00;;
7997;SDS011;4044;49.814;7.828;2023-12-20T07:09:49;5.97;;;2.23;;
7997;SDS011;4044;49.814;7.828;2023-12-20T07:12:15;2.77;;;2.17;;
7997;SDS011;4044;49.814;7.828;2023-12-20T07:14:40;4.80;;;2.20;;
7997;SDS011;4044;49.814;7.828;2023-12-20T07:17:06;3.03;;;1.93;;
7997;SDS011;4044;49.814;7.828;2023-12-20T07:19:36;8.40;;;2.20;;
7997;SDS011;4044;49.814;7.828;2023-12-20T07:22:03;7.10;;;2.40;;
7997;SDS011;4044;49.814;7.828;2023-12-20T07:24:29;3.47;;;2.00;;
7997;SDS011;4044;49.814;7.828;2023-12-20T07:26:54;3.73;;;2.13;;
7997;SDS011;4044;49.814;7.828;2023-12-20T07:29:20;6.03;;;2.20;;
7997;SDS011;4044;49.814;7.828;2023-12-20T07:31:45;7.00;;;2.10;;
7997;SDS011;4044;49.814;7.828;2023-12-20T07:34:11;4.77;;;1.93;;
7997;SDS011;4044;49.814;7.828;2023-12-20T07:36:36;4.80;;;2.07;;
7997;SDS011;4044;49.814;7.828;2023-12-20T07:39:02;4.10;;;1.70;;
7997;SDS011;4044;49.814;7.828;2023-12-20T07:41:28;6.93;;;2.20;;
7997;SDS011;4044;49.814;7.828;2023-12-20T07:43:53;4.03;;;2.10;;
7997;SDS011;4044;49.814;7.828;2023-12-20T07:46:20;6.50;;;2.67;;
7997;SDS011;4044;49.814;7.828;2023-12-20T07:48:47;7.10;;;2.60;;
7997;SDS011;4044;49.814;7.828;2023-12-20T07:51:13;8.57;;;2.40;;
7997;SDS011;4044;49.814;7.828;2023-12-20T07:53:38;5.30;;;2.30;;
7997;SDS011;4044;49.814;7.828;2023-12-20T07:56:14;3.87;;;2.17;;
7997;SDS011;4044;49.814;7.828;2023-12-20T07:58:43;6.80;;;2.40;;
7997;SDS011;4044;49.814;7.828;2023-12-20T08:01:09;5.10;;;2.40;;
7997;SDS011;4044;49.814;7.828;2023-12-20T08:03:35;5.03;;;2.33;;
7997;SDS011;4044;49.814;7.828;2023-12-20T08:06:01;5.53;;;1.90;;
7997;SDS011;4044;49.814;7.828;2023-12-20T08:08:27;4.43;;;2.07;;
7997;SDS011;4044;49.814;7.828;2023-12-20T08:10:53;5.67;;;2.30;;
7997;SDS011;4044;49.814;7.828;2023-12-20T08:13:18;6.60;;;2.10;;
7997;SDS011;4044;49.814;7.828;2023-12-20T08:15:44;3.67;;;2.13;;
7997;SDS011;4044;49.814;7.828;2023-12-20T08:18:09;5.17;;;2.30;;
7997;SDS011;4044;49.814;7.828;2023-12-20T08:20:35;8.90;;;2.27;;
7997;SDS011;4044;49.814;7.828;2023-12-20T08:23:00;4.83;;;2.10;;
7997;SDS011;4044;49.814;7.828;2023-12-20T08:25:26;5.83;;;2.20;;
7997;SDS011;4044;49.814;7.828;2023-12-20T08:27:52;3.83;;;1.90;;
7997;SDS011;4044;49.814;7.828;2023-12-20T08:30:18;7.20;;;2.83;;
7997;SDS011;4044;49.814;7.828;2023-12-20T08:32:46;7.40;;;2.20;;
7997;SDS011;4044;49.814;7.828;2023-12-20T08:35:15;5.93;;;2.70;;
7997;SDS011;4044;49.814;7.828;2023-12-20T08:37:40;6.50;;;2.57;;
7997;SDS011;4044;49.814;7.828;2023-12-20T08:40:06;7.93;;;2.37;;
7997;SDS011;4044;49.814;7.828;2023-12-20T08:42:32;10.63;;;2.73;;
7997;SDS011;4044;49.814;7.828;2023-12-20T08:44:58;6.77;;;2.40;;
7997;SDS011;4044;49.814;7.828;2023-12-20T08:47:23;8.53;;;2.63;;
7997;SDS011;4044;49.814;7.828;2023-12-20T08:49:49;6.10;;;2.20;;
7997;SDS011;4044;49.814;7.828;2023-12-20T08:52:15;8.20;;;2.33;;
7997;SDS011;4044;49.814;7.828;2023-12-20T08:54:41;4.40;;;2.20;;
7997;SDS011;4044;49.814;7.828;2023-12-20T08:57:06;6.27;;;2.23;;
7997;SDS011;4044;49.814;7.828;2023-12-20T08:59:32;6.13;;;2.67;;
7997;SDS011;4044;49.814;7.828;2023-12-20T09:01:58;3.13;;;2.43;;
7997;SDS011;4044;49.814;7.828;2023-12-20T09:04:23;5.07;;;2.17;;
7997;SDS011;4044;49.814;7.828;2023-12-20T09:06:49;6.80;;;2.00;;
7997;SDS011;4044;49.814;7.828;2023-12-20T09:09:14;6.10;;;2.30;;
7997;SDS011;4044;49.814;7.828;2023-12-20T09:11:40;6.00;;;2.30;;
7997;SDS011;4044;49.814;7.828;2023-12-20T09:14:07;5.30;;;2.10;;
7997;SDS011;4044;49.814;7.828;2023-12-20T09:16:32;7.73;;;2.57;;
7997;SDS011;4044;49.814;7.828;2023-12-20T09:18:58;3.63;;;1.93;;
7997;SDS011;4044;49.814;7.828;2023-12-20T09:21:24;5.67;;;2.20;;
7997;SDS011;4044;49.814;7.828;2023-12-20T09:23:49;4.23;;;2.03;;
7997;SDS011;4044;49.814;7.828;2023-12-20T09:26:15;6.00;;;2.30;;
7997;SDS011;4044;49.814;7.828;2023-12-20T09:28:40;5.20;;;2.30;;
7997;SDS011;4044;49.814;7.828;2023-12-20T09:31:06;5.30;;;2.10;;
7997;SDS011;4044;49.814;7.828;2023-12-20T09:33:32;5.67;;;2.03;;
7997;SDS011;4044;49.814;7.828;2023-12-20T09:35:58;3.83;;;2.10;;
7997;SDS011;4044;49.814;7.828;2023-12-20T09:38:24;4.60;;;2.20;;
7997;SDS011;4044;49.814;7.828;2023-12-20T09:40:49;4.53;;;2.40;;
7997;SDS011;4044;49.814;7.828;2023-12-20T09:43:15;5.20;;;2.50;;
7997;SDS011;4044;49.814;7.828;2023-12-20T09:45:47;4.70;;;2.10;;
7997;SDS011;4044;49.814;7.828;2023-12-20T09:48:13;4.37;;;2.23;;
7997;SDS011;4044;49.814;7.828;2023-12-20T09:50:42;6.13;;;1.90;;
7997;SDS011;4044;49.814;7.828;2023-12-20T09:53:10;5.27;;;1.90;;
7997;SDS011;4044;49.814;7.828;2023-12-20T09:55:40;5.33;;;2.23;;
7997;SDS011;4044;49.814;7.828;2023-12-20T09:58:06;4.47;;;2.23;;
7997;SDS011;4044;49.814;7.828;2023-12-20T10:00:33;3.13;;;1.60;;
7997;SDS011;4044;49.814;7.828;2023-12-20T10:03:00;3.90;;;1.97;;
7997;SDS011;4044;49.814;7.828;2023-12-20T10:05:30;5.67;;;2.30;;
7997;SDS011;4044;49.814;7.828;2023-12-20T10:07:56;5.23;;;1.80;;
7997;SDS011;4044;49.814;7.828;2023-12-20T10:10:23;3.63;;;2.00;;
7997;SDS011;4044;49.814;7.828;2023-12-20T10:13:07;7.73;;;2.17;;
7997;SDS011;4044;49.814;7.828;2023-12-20T10:15:35;4.97;;;2.30;;
7997;SDS011;4044;49.814;7.828;2023-12-20T10:18:01;4.10;;;2.13;;
7997;SDS011;4044;49.814;7.828;2023-12-20T10:20:27;7.13;;;2.33;;
7997;SDS011;4044;49.814;7.828;2023-12-20T10:22:54;7.73;;;2.30;;
7997;SDS011;4044;49.814;7.828;2023-12-20T10:25:20;6.13;;;2.17;;
7997;SDS011;4044;49.814;7.828;2023-12-20T10:27:46;7.33;;;2.43;;
7997;SDS011;4044;49.814;7.828;2023-12-20T10:30:12;4.57;;;2.10;;
7997;SDS011;4044;49.814;7.828;2023-12-20T10:32:41;4.67;;;2.00;;
7997;SDS011;4044;49.814;7.828;2023-12-20T10:35:07;7.23;;;2.07;;
7997;SDS011;4044;49.814;7.828;2023-12-20T10:37:36;3.83;;;2.20;;
7997;SDS011;4044;49.814;7.828;2023-12-20T10:40:03;6.30;;;2.30;;
7997;SDS011;4044;49.814;7.828;2023-12-20T10:42:31;4.30;;;1.97;;
7997;SDS011;4044;49.814;7.828;2023-12-20T10:44:58;4.83;;;2.33;;
7997;SDS011;4044;49.814;7.828;2023-12-20T10:47:24;2.87;;;1.90;;
7997;SDS011;4044;49.814;7.828;2023-12-20T10:49:51;5.30;;;2.00;;
7997;SDS011;4044;49.814;7.828;2023-12-20T10:52:17;5.17;;;1.77;;
7997;SDS011;4044;49.814;7.828;2023-12-20T10:54:43;4.20;;;1.93;;
7997;SDS011;4044;49.814;7.828;2023-12-20T10:57:09;5.73;;;2.20;;
7997;SDS011;4044;49.814;7.828;2023-12-20T10:59:36;4.20;;;1.97;;
7997;SDS011;4044;49.814;7.828;2023-12-20T11:02:03;6.40;;;2.10;;
7997;SDS011;4044;49.814;7.828;2023-12-20T11:09:39;12.33;;;2.80;;
7997;SDS011;4044;49.814;7.828;2023-12-20T11:12:19;7.43;;;2.33;;
7997;SDS011;4044;49.814;7.828;2023-12-20T11:15:06;5.53;;;2.40;;
7997;SDS011;4044;49.814;7.828;2023-12-20T11:17:32;6.17;;;2.37;;
7997;SDS011;4044;49.814;7.828;2023-12-20T11:22:24;5.17;;;2.10;;
7997;SDS011;4044;49.814;7.828;2023-12-20T11:24:52;5.07;;;2.20;;
7997;SDS011;4044;49.814;7.828;2023-12-20T11:27:18;5.57;;;2.03;;
7997;SDS011;4044;49.814;7.828;2023-12-20T11:29:51;3.93;;;2.27;;
7997;SDS011;4044;49.814;7.828;2023-12-20T11:34:59;5.13;;;2.10;;
7997;SDS011;4044;49.814;7.828;2023-12-20T11:37:35;2.70;;;1.80;;
7997;SDS011;4044;49.814;7.828;2023-12-20T11:40:02;5.53;;;2.60;;
7997;SDS011;4044;49.814;7.828;2023-12-20T11:42:33;3.87;;;2.10;;
7997;SDS011;4044;49.814;7.828;2023-12-20T11:45:03;5.37;;;2.30;;
7997;SDS011;4044;49.814;7.828;2023-12-20T11:47:29;3.13;;;2.30;;
7997;SDS011;4044;49.814;7.828;2023-12-20T11:49:56;9.27;;;2.90;;
7997;SDS011;4044;49.814;7.828;2023-12-20T11:52:21;5.20;;;2.20;;
7997;SDS011;4044;49.814;7.828;2023-12-20T11:54:47;6.53;;;2.77;;
7997;SDS011;4044;49.814;7.828;2023-12-20T11:57:13;5.53;;;2.40;;
7997;SDS011;4044;49.814;7.828;2023-12-20T11:59:38;5.03;;;2.63;;
7997;SDS011;4044;49.814;7.828;2023-12-20T12:02:04;9.67;;;2.67;;
7997;SDS011;4044;49.814;7.828;2023-12-20T12:04:30;5.73;;;2.70;;
7997;SDS011;4044;49.814;7.828;2023-12-20T12:06:56;6.07;;;2.70;;
7997;SDS011;4044;49.814;7.828;2023-12-20T12:09:21;7.30;;;2.60;;
7997;SDS011;4044;49.814;7.828;2023-12-20T12:11:46;6.90;;;2.37;;
7997;SDS011;4044;49.814;7.828;2023-12-20T12:14:12;5.17;;;2.30;;
7997;SDS011;4044;49.814;7.828;2023-12-20T12:16:38;4.80;;;2.27;;
7997;SDS011;4044;49.814;7.828;2023-12-20T12:19:03;4.50;;;2.23;;
7997;SDS011;4044;49.814;7.828;2023-12-20T12:21:29;7.93;;;2.60;;
7997;SDS011;4044;49.814;7.828;2023-12-20T12:24:05;5.80;;;2.07;;
7997;SDS011;4044;49.814;7.828;2023-12-20T12:26:32;5.97;;;2.20;;
7997;SDS011;4044;49.814;7.828;2023-12-20T12:28:57;4.37;;;2.10;;
7997;SDS011;4044;49.814;7.828;2023-12-20T12:31:22;5.03;;;2.40;;
7997;SDS011;4044;49.814;7.828;2023-12-20T12:33:50;4.40;;;2.03;;
7997;SDS011;4044;49.814;7.828;2023-12-20T12:36:16;5.37;;;2.27;;
7997;SDS011;4044;49.814;7.828;2023-12-20T12:38:42;3.97;;;2.33;;
7997;SDS011;4044;49.814;7.828;2023-12-20T12:41:08;3.93;;;2.20;;
7997;SDS011;4044;49.814;7.828;2023-12-20T12:43:35;4.30;;;2.20;;
7997;SDS011;4044;49.814;7.828;2023-12-20T12:46:00;6.03;;;2.20;;
7997;SDS011;4044;49.814;7.828;2023-12-20T12:48:26;6.43;;;2.30;;
7997;SDS011;4044;49.814;7.828;2023-12-20T12:50:53;4.93;;;1.93;;
7997;SDS011;4044;49.814;7.828;2023-12-20T12:53:19;4.73;;;2.10;;
7997;SDS011;4044;49.814;7.828;2023-12-20T12:55:45;3.00;;;1.57;;
7997;SDS011;4044;49.814;7.828;2023-12-20T12:58:11;3.43;;;1.77;;
7997;SDS011;4044;49.814;7.828;2023-12-20T13:00:36;4.17;;;1.80;;
7997;SDS011;4044;49.814;7.828;2023-12-20T13:03:02;3.83;;;1.80;;
7997;SDS011;4044;49.814;7.828;2023-12-20T13:05:27;8.77;;;1.80;;
7997;SDS011;4044;49.814;7.828;2023-12-20T13:07:54;3.57;;;1.90;;
7997;SDS011;4044;49.814;7.828;2023-12-20T13:10:20;4.23;;;1.77;;
7997;SDS011;4044;49.814;7.828;2023-12-20T13:12:46;6.40;;;2.03;;
7997;SDS011;4044;49.814;7.828;2023-12-20T13:15:11;4.90;;;1.87;;
7997;SDS011;4044;49.814;7.828;2023-12-20T13:17:37;4.97;;;2.07;;
7997;SDS011;4044;49.814;7.828;2023-12-20T13:20:03;4.37;;;2.23;;
7997;SDS011;4044;49.814;7.828;2023-12-20T13:22:28;6.33;;;1.93;;
7997;SDS011;4044;49.814;7.828;2023-12-20T13:24:54;4.43;;;2.03;;
7997;SDS011;4044;49.814;7.828;2023-12-20T13:27:19;3.50;;;1.83;;
7997;SDS011;4044;49.814;7.828;2023-12-20T13:29:45;6.33;;;1.87;;
7997;SDS011;4044;49.814;7.828;2023-12-20T13:32:10;3.47;;;2.00;;
7997;SDS011;4044;49.814;7.828;2023-12-20T13:34:36;3.10;;;1.63;;
7997;SDS011;4044;49.814;7.828;2023-12-20T13:37:01;5.53;;;1.90;;
7997;SDS011;4044;49.814;7.828;2023-12-20T13:39:28;5.90;;;2.40;;
7997;SDS011;4044;49.814;7.828;2023-12-20T13:41:53;5.27;;;2.10;;
7997;SDS011;4044;49.814;7.828;2023-12-20T13:44:19;5.80;;;2.17;;
7997;SDS011;4044;49.814;7.828;2023-12-20T13:46:44;4.20;;;2.00;;
7997;SDS011;4044;49.814;7.828;2023-12-20T13:49:11;4.83;;;2.00;;
7997;SDS011;4044;49.814;7.828;2023-12-20T13:51:37;4.57;;;2.07;;
7997;SDS011;4044;49.814;7.828;2023-12-20T13:54:03;3.17;;;1.83;;
7997;SDS011;4044;49.814;7.828;2023-12-20T13:56:29;4.53;;;1.73;;
7997;SDS011;4044;49.814;7.828;2023-12-20T13:58:54;5.03;;;2.07;;
7997;SDS011;4044;49.814;7.828;2023-12-20T14:01:20;3.93;;;1.57;;
7997;SDS011;4044;49.814;7.828;2023-12-20T14:03:45;2.53;;;1.63;;
7997;SDS011;4044;49.814;7.828;2023-12-20T14:06:11;5.97;;;2.10;;
7997;SDS011;4044;49.814;7.828;2023-12-20T14:08:36;5.40;;;1.70;;
7997;SDS011;4044;49.814;7.828;2023-12-20T14:11:02;3.17;;;1.70;;
7997;SDS011;4044;49.814;7.828;2023-12-20T14:13:28;6.67;;;1.80;;
7997;SDS011;4044;49.814;7.828;2023-12-20T14:15:53;5.77;;;2.00;;
7997;SDS011;4044;49.814;7.828;2023-12-20T14:18:19;4.30;;;1.90;;
7997;SDS011;4044;49.814;7.828;2023-12-20T14:20:45;4.73;;;1.90;;
7997;SDS011;4044;49.814;7.828;2023-12-20T14:23:12;3.53;;;1.77;;
7997;SDS011;4044;49.814;7.828;2023-12-20T14:25:40;4.33;;;2.10;;
7997;SDS011;4044;49.814;7.828;2023-12-20T14:28:06;6.50;;;1.93;;
7997;SDS011;4044;49.814;7.828;2023-12-20T14:30:32;2.60;;;1.50;;
7997;SDS011;4044;49.814;7.828;2023-12-20T14:32:57;4.57;;;2.10;;
7997;SDS011;4044;49.814;7.828;2023-12-20T14:35:23;4.60;;;1.90;;
7997;SDS011;4044;49.814;7.828;2023-12-20T14:37:49;4.07;;;2.07;;
7997;SDS011;4044;49.814;7.828;2023-12-20T14:40:15;4.80;;;1.67;;
7997;SDS011;4044;49.814;7.828;2023-12-20T14:42:44;5.47;;;2.50;;
7997;SDS011;4044;49.814;7.828;2023-12-20T14:45:10;4.87;;;2.00;;
7997;SDS011;4044;49.814;7.828;2023-12-20T14:47:36;5.90;;;1.87;;
7997;SDS011;4044;49.814;7.828;2023-12-20T14:50:04;6.43;;;1.80;;
7997;SDS011;4044;49.814;7.828;2023-12-20T14:52:31;5.50;;;2.17;;
7997;SDS011;4044;49.814;7.828;2023-12-20T14:54:57;5.40;;;2.10;;
7997;SDS011;4044;49.814;7.828;2023-12-20T14:57:22;5.13;;;1.90;;
7997;SDS011;4044;49.814;7.828;2023-12-20T14:59:48;4.93;;;1.90;;
7997;SDS011;4044;49.814;7.828;2023-12-20T15:02:13;5.00;;;1.83;;
7997;SDS011;4044;49.814;7.828;2023-12-20T15:04:40;5.87;;;1.97;;
7997;SDS011;4044;49.814;7.828;2023-12-20T15:07:06;3.77;;;2.23;;
7997;SDS011;4044;49.814;7.828;2023-12-20T15:09:31;5.20;;;1.93;;
7997;SDS011;4044;49.814;7.828;2023-12-20T15:11:57;4.43;;;1.80;;
7997;SDS011;4044;49.814;7.828;2023-12-20T15:14:22;4.03;;;2.00;;
7997;SDS011;4044;49.814;7.828;2023-12-20T15:16:48;6.27;;;2.27;;
7997;SDS011;4044;49.814;7.828;2023-12-20T15:19:14;7.20;;;1.83;;